createdAt,value
2023-04-11T00:00:26.966Z,92845.00
2023-04-11T00:01:27.172Z,92849.00
2023-04-11T00:02:27.143Z,92845.00
2023-04-11T00:03:27.263Z,92843.00
2023-04-11T00:04:27.160Z,92837.00
2023-04-11T00:05:27.050Z,92835.00
2023-04-11T00:06:27.074Z,92827.00
2023-04-11T00:07:27.077Z,92825.00
2023-04-11T00:08:27.096Z,92827.00
2023-04-11T00:09:27.107Z,92827.00
2023-04-11T00:10:27.140Z,92831.00
2023-04-11T00:11:27.144Z,92827.00
2023-04-11T00:12:27.164Z,92825.00
2023-04-11T00:13:27.194Z,92819.00
2023-04-11T00:14:27.188Z,92819.00
2023-04-11T00:15:27.198Z,92819.00
2023-04-11T00:16:27.351Z,92821.00
2023-04-11T00:17:27.260Z,92823.00
2023-04-11T00:18:27.258Z,92819.00
2023-04-11T00:19:27.265Z,92817.00
2023-04-11T00:20:27.291Z,92813.00
2023-04-11T00:21:27.300Z,92809.00
2023-04-11T00:22:27.331Z,92806.00
2023-04-11T00:23:27.334Z,92802.00
2023-04-11T00:24:27.366Z,92802.00
2023-04-11T00:25:27.443Z,92800.00
2023-04-11T00:26:27.396Z,92796.00
2023-04-11T00:27:27.417Z,92798.00
2023-04-11T00:28:27.691Z,92796.00
2023-04-11T00:29:27.452Z,92796.00
2023-04-11T00:30:27.454Z,92794.00
2023-04-11T00:31:27.474Z,92796.00
2023-04-11T00:32:27.524Z,92794.00
2023-04-11T00:33:27.483Z,92796.00
2023-04-11T00:34:27.522Z,92792.00
2023-04-11T00:35:27.531Z,92792.00
2023-04-11T00:36:27.684Z,92790.00
2023-04-11T00:37:27.567Z,92784.00
2023-04-11T00:38:27.577Z,92784.00
2023-04-11T00:39:27.636Z,92780.00
2023-04-11T00:40:27.576Z,92780.00
2023-04-11T00:41:27.623Z,92784.00
2023-04-11T00:42:27.659Z,92784.00
2023-04-11T00:43:27.647Z,92786.00
2023-04-11T00:44:27.636Z,92784.00
2023-04-11T00:45:27.699Z,92786.00
2023-04-11T00:46:27.913Z,92786.00
2023-04-11T00:47:27.719Z,92782.00
2023-04-11T00:48:27.658Z,92782.00
2023-04-11T00:49:27.669Z,92780.00
2023-04-11T00:50:27.723Z,92776.00
2023-04-11T00:51:27.679Z,92776.00
2023-04-11T00:52:27.694Z,92776.00
2023-04-11T00:53:27.700Z,92774.00
2023-04-11T00:54:27.703Z,92772.00
2023-04-11T00:55:27.735Z,92770.00
2023-04-11T00:56:27.722Z,92768.00
2023-04-11T00:57:27.727Z,92764.00
2023-04-11T00:58:27.747Z,92766.00
2023-04-11T00:59:27.751Z,92764.00
2023-04-11T01:00:27.752Z,92762.00
2023-04-11T01:01:27.810Z,92760.00
2023-04-11T01:02:27.911Z,92757.00
2023-04-11T01:03:27.893Z,92757.00
2023-04-11T01:04:27.789Z,92753.00
2023-04-11T01:05:27.811Z,92751.00
2023-04-11T01:06:27.829Z,92747.00
2023-04-11T01:07:27.816Z,92749.00
2023-04-11T01:08:27.866Z,92751.00
2023-04-11T01:09:27.841Z,92753.00
2023-04-11T01:10:27.831Z,92753.00
2023-04-11T01:11:27.833Z,92751.00
2023-04-11T01:12:28.211Z,92749.00
2023-04-11T01:13:28.687Z,92749.00
2023-04-11T01:14:27.850Z,92751.00
2023-04-11T01:15:27.869Z,92755.00
2023-04-11T01:16:27.877Z,92762.00
2023-04-11T01:17:27.917Z,92764.00
2023-04-11T01:18:27.868Z,92762.00
2023-04-11T01:19:27.866Z,92759.00
2023-04-11T01:20:27.882Z,92757.00
2023-04-11T01:21:27.873Z,92751.00
2023-04-11T01:22:27.889Z,92749.00
2023-04-11T01:23:27.872Z,92745.00
2023-04-11T01:24:27.876Z,92745.00
2023-04-11T01:25:27.886Z,92745.00
2023-04-11T01:26:27.880Z,92745.00
2023-04-11T01:27:27.876Z,92745.00
2023-04-11T01:28:27.875Z,92747.00
2023-04-11T01:29:27.946Z,92749.00
2023-04-11T01:30:27.899Z,92753.00
2023-04-11T01:31:27.899Z,92755.00
2023-04-11T01:32:27.903Z,92755.00
2023-04-11T01:33:27.863Z,92755.00
2023-04-11T01:34:27.869Z,92753.00
2023-04-11T01:35:27.863Z,92753.00
2023-04-11T01:36:27.859Z,92751.00
2023-04-11T01:37:27.862Z,92755.00
2023-04-11T01:38:27.871Z,92753.00
2023-04-11T01:39:27.862Z,92759.00
2023-04-11T01:40:27.874Z,92759.00
2023-04-11T01:41:27.866Z,92757.00
2023-04-11T01:42:27.850Z,92753.00
2023-04-11T01:43:27.855Z,92753.00
2023-04-11T01:44:27.846Z,92749.00
2023-04-11T01:45:27.836Z,92751.00
2023-04-11T01:46:27.836Z,92759.00
2023-04-11T01:47:27.897Z,92766.00
2023-04-11T01:48:27.940Z,92772.00
2023-04-11T01:49:27.826Z,92774.00
2023-04-11T01:50:27.826Z,92774.00
2023-04-11T01:51:27.815Z,92772.00
2023-04-11T01:52:27.815Z,92764.00
2023-04-11T01:53:27.810Z,92760.00
2023-04-11T01:54:27.818Z,92759.00
2023-04-11T01:55:27.817Z,92760.00
2023-04-11T01:56:27.805Z,92762.00
2023-04-11T01:57:27.792Z,92768.00
2023-04-11T01:58:27.800Z,92766.00
2023-04-11T01:59:27.797Z,92766.00
2023-04-11T02:00:27.803Z,92762.00
2023-04-11T02:01:27.839Z,92755.00
2023-04-11T02:02:27.948Z,92747.00
2023-04-11T02:03:28.044Z,92741.00
2023-04-11T02:04:27.931Z,92743.00
2023-04-11T02:05:27.772Z,92741.00
2023-04-11T02:06:27.786Z,92743.00
2023-04-11T02:07:27.776Z,92739.00
2023-04-11T02:08:27.773Z,92735.00
2023-04-11T02:09:27.795Z,92733.00
2023-04-11T02:10:27.783Z,92735.00
2023-04-11T02:11:27.788Z,92737.00
2023-04-11T02:12:27.785Z,92733.00
2023-04-11T02:13:27.816Z,92729.00
2023-04-11T02:14:27.789Z,92723.00
2023-04-11T02:15:27.822Z,92713.00
2023-04-11T02:16:27.766Z,92704.00
2023-04-11T02:17:27.809Z,92702.00
2023-04-11T02:18:27.782Z,92700.00
2023-04-11T02:19:27.792Z,92702.00
2023-04-11T02:20:27.831Z,92706.00
2023-04-11T02:21:27.768Z,92702.00
2023-04-11T02:22:27.838Z,92704.00
2023-04-11T02:23:27.788Z,92708.00
2023-04-11T02:24:27.758Z,92710.00
2023-04-11T02:25:27.774Z,92715.00
2023-04-11T02:26:27.791Z,92717.00
2023-04-11T02:27:27.803Z,92717.00
2023-04-11T02:28:27.888Z,92719.00
2023-04-11T02:29:27.717Z,92715.00
2023-04-11T02:30:27.719Z,92713.00
2023-04-11T02:31:27.787Z,92713.00
2023-04-11T02:32:27.756Z,92715.00
2023-04-11T02:33:27.706Z,92717.00
2023-04-11T02:34:27.696Z,92717.00
2023-04-11T02:35:27.701Z,92717.00
2023-04-11T02:36:27.697Z,92717.00
2023-04-11T02:37:27.691Z,92713.00
2023-04-11T02:38:27.715Z,92713.00
2023-04-11T02:39:27.678Z,92712.00
2023-04-11T02:40:27.685Z,92708.00
2023-04-11T02:41:27.676Z,92710.00
2023-04-11T02:42:27.673Z,92710.00
2023-04-11T02:43:27.670Z,92706.00
2023-04-11T02:44:28.230Z,92706.00
2023-04-11T02:45:27.647Z,92706.00
2023-04-11T02:46:27.656Z,92708.00
2023-04-11T02:47:27.697Z,92708.00
2023-04-11T02:48:27.643Z,92710.00
2023-04-11T02:49:27.639Z,92708.00
2023-04-11T02:50:27.632Z,92713.00
2023-04-11T02:51:27.614Z,92713.00
2023-04-11T02:52:27.594Z,92708.00
2023-04-11T02:53:27.584Z,92706.00
2023-04-11T02:54:27.576Z,92708.00
2023-04-11T02:55:27.567Z,92712.00
2023-04-11T02:56:27.553Z,92712.00
2023-04-11T02:57:27.556Z,92708.00
2023-04-11T02:58:27.703Z,92700.00
2023-04-11T02:59:27.551Z,92698.00
2023-04-11T03:00:27.534Z,92704.00
2023-04-11T03:01:27.541Z,92708.00
2023-04-11T03:02:27.686Z,92710.00
2023-04-11T03:03:27.588Z,92712.00
2023-04-11T03:04:27.538Z,92710.00
2023-04-11T03:05:27.496Z,92708.00
2023-04-11T03:06:27.493Z,92710.00
2023-04-11T03:07:27.475Z,92712.00
2023-04-11T03:08:27.469Z,92710.00
2023-04-11T03:09:27.470Z,92710.00
2023-04-11T03:10:27.455Z,92708.00
2023-04-11T03:11:27.446Z,92702.00
2023-04-11T03:12:27.437Z,92700.00
2023-04-11T03:13:27.427Z,92698.00
2023-04-11T03:14:27.416Z,92700.00
2023-04-11T03:15:27.404Z,92700.00
2023-04-11T03:16:27.404Z,92696.00
2023-04-11T03:17:28.272Z,92692.00
2023-04-11T03:18:27.373Z,92690.00
2023-04-11T03:19:27.360Z,92686.00
2023-04-11T03:20:27.346Z,92680.00
2023-04-11T03:21:27.346Z,92676.00
2023-04-11T03:22:27.345Z,92668.00
2023-04-11T03:23:27.316Z,92663.00
2023-04-11T03:24:27.300Z,92657.00
2023-04-11T03:25:27.298Z,92653.00
2023-04-11T03:26:27.344Z,92651.00
2023-04-11T03:27:27.292Z,92651.00
2023-04-11T03:28:27.434Z,92651.00
2023-04-11T03:29:27.269Z,92655.00
2023-04-11T03:30:27.273Z,92651.00
2023-04-11T03:31:27.325Z,92645.00
2023-04-11T03:32:27.282Z,92645.00
2023-04-11T03:33:27.243Z,92637.00
2023-04-11T03:34:27.227Z,92635.00
2023-04-11T03:35:27.215Z,92637.00
2023-04-11T03:36:27.207Z,92635.00
2023-04-11T03:37:27.199Z,92635.00
2023-04-11T03:38:27.194Z,92641.00
2023-04-11T03:39:27.202Z,92645.00
2023-04-11T03:40:27.171Z,92649.00
2023-04-11T03:41:27.179Z,92657.00
2023-04-11T03:42:27.160Z,92653.00
2023-04-11T03:43:27.168Z,92653.00
2023-04-11T03:44:27.140Z,92651.00
2023-04-11T03:45:27.137Z,92647.00
2023-04-11T03:46:27.143Z,92647.00
2023-04-11T03:47:27.148Z,92647.00
2023-04-11T03:48:27.127Z,92651.00
2023-04-11T03:49:27.120Z,92653.00
2023-04-11T03:50:27.107Z,92661.00
2023-04-11T03:51:27.100Z,92661.00
2023-04-11T03:52:27.090Z,92661.00
2023-04-11T03:53:27.081Z,92657.00
2023-04-11T03:54:27.052Z,92653.00
2023-04-11T03:55:27.039Z,92647.00
2023-04-11T03:56:27.037Z,92643.00
2023-04-11T03:57:27.169Z,92637.00
2023-04-11T03:58:27.015Z,92635.00
2023-04-11T03:59:27.001Z,92635.00
2023-04-11T04:00:26.993Z,92633.00
2023-04-11T04:01:26.977Z,92633.00
2023-04-11T04:02:27.041Z,92633.00
2023-04-11T04:03:27.162Z,92631.00
2023-04-11T04:04:27.009Z,92625.00
2023-04-11T04:05:26.951Z,92623.00
2023-04-11T04:06:26.958Z,92612.00
2023-04-11T04:07:26.936Z,92610.00
2023-04-11T04:08:26.934Z,92608.00
2023-04-11T04:09:27.013Z,92606.00
2023-04-11T04:10:26.901Z,92606.00
2023-04-11T04:11:26.905Z,92608.00
2023-04-11T04:12:26.888Z,92604.00
2023-04-11T04:13:26.888Z,92602.00
2023-04-11T04:14:26.875Z,92602.00
2023-04-11T04:15:26.860Z,92598.00
2023-04-11T04:16:26.862Z,92598.00
2023-04-11T04:17:26.859Z,92590.00
2023-04-11T04:18:26.835Z,92581.00
2023-04-11T04:19:26.813Z,92577.00
2023-04-11T04:20:26.808Z,92579.00
2023-04-11T04:21:26.882Z,92573.00
2023-04-11T04:22:26.785Z,92573.00
2023-04-11T04:23:26.800Z,92573.00
2023-04-11T04:24:26.758Z,92575.00
2023-04-11T04:25:26.753Z,92573.00
2023-04-11T04:26:26.741Z,92575.00
2023-04-11T04:27:26.872Z,92577.00
2023-04-11T04:28:26.715Z,92575.00
2023-04-11T04:29:26.697Z,92579.00
2023-04-11T04:30:26.688Z,92581.00
2023-04-11T04:31:26.687Z,92584.00
2023-04-11T04:32:26.688Z,92582.00
2023-04-11T04:33:27.657Z,92577.00
2023-04-11T04:34:26.654Z,92569.00
2023-04-11T04:35:26.706Z,92569.00
2023-04-11T04:36:26.616Z,92563.00
2023-04-11T04:37:26.608Z,92561.00
2023-04-11T04:38:26.609Z,92557.00
2023-04-11T04:39:26.596Z,92557.00
2023-04-11T04:40:26.591Z,92557.00
2023-04-11T04:41:26.596Z,92559.00
2023-04-11T04:42:26.581Z,92559.00
2023-04-11T04:43:26.573Z,92561.00
2023-04-11T04:44:26.560Z,92563.00
2023-04-11T04:45:26.669Z,92563.00
2023-04-11T04:46:26.536Z,92561.00
2023-04-11T04:47:26.548Z,92557.00
2023-04-11T04:48:26.511Z,92565.00
2023-04-11T04:49:26.504Z,92571.00
2023-04-11T04:50:26.490Z,92575.00
2023-04-11T04:51:26.489Z,92577.00
2023-04-11T04:52:26.478Z,92579.00
2023-04-11T04:53:26.465Z,92579.00
2023-04-11T04:54:26.437Z,92581.00
2023-04-11T04:55:26.422Z,92582.00
2023-04-11T04:56:26.430Z,92587.00
2023-04-11T04:57:26.571Z,92582.00
2023-04-11T04:58:26.418Z,92587.00
2023-04-11T04:59:26.400Z,92590.00
2023-04-11T05:00:26.380Z,92594.00
2023-04-11T05:01:26.471Z,92598.00
2023-04-11T05:02:26.612Z,92596.00
2023-04-11T05:03:26.466Z,92594.00
2023-04-11T05:04:26.423Z,92592.00
2023-04-11T05:05:26.325Z,92590.00
2023-04-11T05:06:26.305Z,92592.00
2023-04-11T05:07:26.305Z,92587.00
2023-04-11T05:08:26.286Z,92587.00
2023-04-11T05:09:26.274Z,92582.00
2023-04-11T05:10:26.311Z,92579.00
2023-04-11T05:11:26.251Z,92575.00
2023-04-11T05:12:26.288Z,92567.00
2023-04-11T05:13:26.228Z,92569.00
2023-04-11T05:14:26.207Z,92567.00
2023-04-11T05:15:26.212Z,92567.00
2023-04-11T05:16:26.219Z,92565.00
2023-04-11T05:17:26.236Z,92569.00
2023-04-11T05:18:26.173Z,92569.00
2023-04-11T05:19:26.147Z,92571.00
2023-04-11T05:20:26.146Z,92569.00
2023-04-11T05:21:26.123Z,92573.00
2023-04-11T05:22:26.148Z,92573.00
2023-04-11T05:23:26.087Z,92577.00
2023-04-11T05:24:26.076Z,92575.00
2023-04-11T05:25:26.085Z,92569.00
2023-04-11T05:26:26.131Z,92575.00
2023-04-11T05:27:26.044Z,92575.00
2023-04-11T05:28:26.038Z,92579.00
2023-04-11T05:29:25.995Z,92579.00
2023-04-11T05:30:26.111Z,92581.00
2023-04-11T05:31:25.972Z,92579.00
2023-04-11T05:32:26.070Z,92577.00
2023-04-11T05:33:26.015Z,92575.00
2023-04-11T05:34:26.042Z,92575.00
2023-04-11T05:35:26.067Z,92573.00
2023-04-11T05:36:26.080Z,92571.00
2023-04-11T05:37:26.134Z,92569.00
2023-04-11T05:38:26.117Z,92565.00
2023-04-11T05:39:26.125Z,92565.00
2023-04-11T05:40:26.118Z,92561.00
2023-04-11T05:41:26.126Z,92563.00
2023-04-11T05:42:26.127Z,92563.00
2023-04-11T05:43:26.102Z,92563.00
2023-04-11T05:44:26.095Z,92565.00
2023-04-11T05:45:26.715Z,92567.00
2023-04-11T05:46:26.065Z,92559.00
2023-04-11T05:47:26.117Z,92555.00
2023-04-11T05:48:26.010Z,92561.00
2023-04-11T05:49:26.016Z,92565.00
2023-04-11T05:50:25.952Z,92567.00
2023-04-11T05:51:25.923Z,92569.00
2023-04-11T05:52:25.890Z,92571.00
2023-04-11T05:53:25.847Z,92569.00
2023-04-11T05:54:25.808Z,92571.00
2023-04-11T05:55:25.764Z,92571.00
2023-04-11T05:56:25.734Z,92577.00
2023-04-11T05:57:26.671Z,92573.00
2023-04-11T05:58:25.645Z,92573.00
2023-04-11T05:59:27.645Z,92575.00
2023-04-11T06:00:25.536Z,92579.00
2023-04-11T06:01:25.501Z,92577.00
2023-04-11T06:02:25.513Z,92577.00
2023-04-11T06:03:25.484Z,92577.00
2023-04-11T06:04:25.585Z,92577.00
2023-04-11T06:05:26.310Z,92582.00
2023-04-11T06:06:25.276Z,92584.00
2023-04-11T06:07:25.209Z,92587.00
2023-04-11T06:08:25.173Z,92582.00
2023-04-11T06:09:25.117Z,92577.00
2023-04-11T06:10:25.049Z,92579.00
2023-04-11T06:11:26.836Z,92581.00
2023-04-11T06:12:24.951Z,92581.00
2023-04-11T06:13:24.907Z,92582.00
2023-04-11T06:14:24.877Z,92589.00
2023-04-11T06:15:24.890Z,92596.00
2023-04-11T06:16:24.955Z,92602.00
2023-04-11T06:17:24.958Z,92608.00
2023-04-11T06:18:24.937Z,92621.00
2023-04-11T06:19:24.965Z,92619.00
2023-04-11T06:20:24.987Z,92621.00
2023-04-11T06:21:24.954Z,92625.00
2023-04-11T06:22:24.947Z,92631.00
2023-04-11T06:23:24.914Z,92627.00
2023-04-11T06:24:24.850Z,92627.00
2023-04-11T06:25:24.806Z,92623.00
2023-04-11T06:26:24.749Z,92621.00
2023-04-11T06:27:24.710Z,92612.00
2023-04-11T06:28:24.681Z,92608.00
2023-04-11T06:29:24.668Z,92604.00
2023-04-11T06:30:24.621Z,92604.00
2023-04-11T06:31:24.625Z,92604.00
2023-04-11T06:32:24.588Z,92606.00
2023-04-11T06:33:24.547Z,92608.00
2023-04-11T06:34:24.520Z,92610.00
2023-04-11T06:35:24.603Z,92612.00
2023-04-11T06:36:24.527Z,92608.00
2023-04-11T06:37:24.484Z,92606.00
2023-04-11T06:38:24.482Z,92602.00
2023-04-11T06:39:25.269Z,92602.00
2023-04-11T06:40:24.469Z,92604.00
2023-04-11T06:41:24.569Z,92604.00
2023-04-11T06:42:24.476Z,92598.00
2023-04-11T06:43:24.485Z,92592.00
2023-04-11T06:44:24.542Z,92590.00
2023-04-11T06:45:24.488Z,92589.00
2023-04-11T06:46:24.516Z,92589.00
2023-04-11T06:47:24.521Z,92589.00
2023-04-11T06:48:24.497Z,92589.00
2023-04-11T06:49:24.603Z,92590.00
2023-04-11T06:50:24.522Z,92587.00
2023-04-11T06:51:24.533Z,92584.00
2023-04-11T06:52:25.876Z,92584.00
2023-04-11T06:53:24.501Z,92584.00
2023-04-11T06:54:24.454Z,92589.00
2023-04-11T06:55:24.413Z,92592.00
2023-04-11T06:56:24.366Z,92587.00
2023-04-11T06:57:24.337Z,92587.00
2023-04-11T06:58:24.296Z,92584.00
2023-04-11T06:59:24.905Z,92584.00
2023-04-11T07:00:24.208Z,92581.00
2023-04-11T07:01:24.211Z,92577.00
2023-04-11T07:02:24.399Z,92579.00
2023-04-11T07:03:24.209Z,92581.00
2023-04-11T07:04:24.088Z,92582.00
2023-04-11T07:05:24.009Z,92579.00
2023-04-11T07:06:23.961Z,92575.00
2023-04-11T07:07:23.903Z,92573.00
2023-04-11T07:08:23.874Z,92575.00
2023-04-11T07:09:23.821Z,92573.00
2023-04-11T07:10:23.840Z,92575.00
2023-04-11T07:11:23.744Z,92579.00
2023-04-11T07:12:23.724Z,92577.00
2023-04-11T07:13:23.674Z,92573.00
2023-04-11T07:14:23.621Z,92571.00
2023-04-11T07:15:23.612Z,92569.00
2023-04-11T07:16:23.579Z,92569.00
2023-04-11T07:17:23.607Z,92567.00
2023-04-11T07:18:23.483Z,92565.00
2023-04-11T07:19:23.510Z,92565.00
2023-04-11T07:20:23.543Z,92567.00
2023-04-11T07:21:23.549Z,92567.00
2023-04-11T07:22:23.549Z,92567.00
2023-04-11T07:23:23.819Z,92565.00
2023-04-11T07:24:23.574Z,92565.00
2023-04-11T07:25:23.582Z,92567.00
2023-04-11T07:26:23.591Z,92571.00
2023-04-11T07:27:23.637Z,92571.00
2023-04-11T07:28:23.574Z,92573.00
2023-04-11T07:29:23.562Z,92573.00
2023-04-11T07:30:23.530Z,92575.00
2023-04-11T07:31:23.666Z,92573.00
2023-04-11T07:32:23.499Z,92575.00
2023-04-11T07:33:23.463Z,92577.00
2023-04-11T07:34:23.384Z,92577.00
2023-04-11T07:35:23.379Z,92577.00
2023-04-11T07:36:23.313Z,92577.00
2023-04-11T07:37:23.265Z,92575.00
2023-04-11T07:38:23.251Z,92575.00
2023-04-11T07:39:23.257Z,92577.00
2023-04-11T07:40:23.204Z,92579.00
2023-04-11T07:41:23.167Z,92581.00
2023-04-11T07:42:23.113Z,92579.00
2023-04-11T07:43:23.074Z,92571.00
2023-04-11T07:44:24.016Z,92569.00
2023-04-11T07:45:23.021Z,92567.00
2023-04-11T07:46:22.962Z,92567.00
2023-04-11T07:47:22.898Z,92573.00
2023-04-11T07:48:22.847Z,92573.00
2023-04-11T07:49:22.798Z,92569.00
2023-04-11T07:50:23.331Z,92575.00
2023-04-11T07:51:22.695Z,92575.00
2023-04-11T07:52:22.662Z,92577.00
2023-04-11T07:53:22.624Z,92573.00
2023-04-11T07:54:22.595Z,92575.00
2023-04-11T07:55:22.576Z,92577.00
2023-04-11T07:56:22.525Z,92577.00
2023-04-11T07:57:22.484Z,92581.00
2023-04-11T07:58:22.487Z,92579.00
2023-04-11T07:59:22.402Z,92589.00
2023-04-11T08:00:22.368Z,92589.00
2023-04-11T08:01:22.319Z,92589.00
2023-04-11T08:02:22.450Z,92590.00
2023-04-11T08:03:22.377Z,92590.00
2023-04-11T08:04:22.374Z,92594.00
2023-04-11T08:05:22.296Z,92596.00
2023-04-11T08:06:22.135Z,92598.00
2023-04-11T08:07:22.063Z,92600.00
2023-04-11T08:08:22.065Z,92598.00
2023-04-11T08:09:22.082Z,92600.00
2023-04-11T08:10:33.048Z,92608.00
2023-04-11T08:11:22.054Z,92606.00
2023-04-11T08:12:22.016Z,92604.00
2023-04-11T08:13:21.963Z,92600.00
2023-04-11T08:14:24.866Z,92596.00
2023-04-11T08:15:21.876Z,92596.00
2023-04-11T08:16:21.862Z,92596.00
2023-04-11T08:17:28.309Z,92596.00
2023-04-11T08:18:22.852Z,92594.00
2023-04-11T08:19:22.856Z,92596.00
2023-04-11T08:20:21.856Z,92594.00
2023-04-11T08:21:21.863Z,92600.00
2023-04-11T08:22:21.904Z,92596.00
2023-04-11T08:23:21.852Z,92594.00
2023-04-11T08:24:21.818Z,92596.00
2023-04-11T08:25:22.318Z,92598.00
2023-04-11T08:26:21.749Z,92602.00
2023-04-11T08:27:22.310Z,92600.00
2023-04-11T08:28:21.672Z,92598.00
2023-04-11T08:29:21.634Z,92596.00
2023-04-11T08:30:21.589Z,92600.00
2023-04-11T08:31:21.725Z,92604.00
2023-04-11T08:32:21.542Z,92610.00
2023-04-11T08:33:21.510Z,92612.00
2023-04-11T08:34:21.504Z,92623.00
2023-04-11T08:35:21.511Z,92627.00
2023-04-11T08:36:21.515Z,92625.00
2023-04-11T08:37:21.526Z,92629.00
2023-04-11T08:38:21.570Z,92631.00
2023-04-11T08:39:21.566Z,92635.00
2023-04-11T08:40:22.280Z,92633.00
2023-04-11T08:41:21.618Z,92637.00
2023-04-11T08:42:21.621Z,92637.00
2023-04-11T08:43:21.863Z,92643.00
2023-04-11T08:44:21.641Z,92643.00
2023-04-11T08:45:21.653Z,92647.00
2023-04-11T08:46:21.699Z,92645.00
2023-04-11T08:47:21.716Z,92643.00
2023-04-11T08:48:21.669Z,92647.00
2023-04-11T08:49:21.695Z,92647.00
2023-04-11T08:50:21.688Z,92649.00
2023-04-11T08:51:21.679Z,92653.00
2023-04-11T08:52:21.670Z,92657.00
2023-04-11T08:53:22.628Z,92661.00
2023-04-11T08:54:21.578Z,92663.00
2023-04-11T08:55:21.531Z,92663.00
2023-04-11T08:56:21.471Z,92661.00
2023-04-11T08:57:21.419Z,92657.00
2023-04-11T08:58:21.381Z,92655.00
2023-04-11T08:59:21.321Z,92651.00
2023-04-11T09:00:21.265Z,92647.00
2023-04-11T09:01:21.311Z,92653.00
2023-04-11T09:02:21.304Z,92653.00
2023-04-11T09:03:21.281Z,92659.00
2023-04-11T09:04:21.071Z,92663.00
2023-04-11T09:05:21.002Z,92663.00
2023-04-11T09:06:20.953Z,92663.00
2023-04-11T09:07:20.891Z,92663.00
2023-04-11T09:08:20.828Z,92665.00
2023-04-11T09:09:20.814Z,92666.00
2023-04-11T09:10:20.771Z,92665.00
2023-04-11T09:11:20.742Z,92666.00
2023-04-11T09:12:20.713Z,92665.00
2023-04-11T09:13:20.686Z,92670.00
2023-04-11T09:14:20.677Z,92672.00
2023-04-11T09:15:20.614Z,92672.00
2023-04-11T09:16:20.661Z,92668.00
2023-04-11T09:17:20.547Z,92670.00
2023-04-11T09:18:20.526Z,92668.00
2023-04-11T09:19:20.543Z,92672.00
2023-04-11T09:20:20.520Z,92674.00
2023-04-11T09:21:20.501Z,92674.00
2023-04-11T09:22:20.504Z,92672.00
2023-04-11T09:23:20.427Z,92674.00
2023-04-11T09:24:20.390Z,92676.00
2023-04-11T09:25:20.388Z,92676.00
2023-04-11T09:26:20.758Z,92672.00
2023-04-11T09:27:20.789Z,92670.00
2023-04-11T09:28:20.193Z,92672.00
2023-04-11T09:29:20.140Z,92674.00
2023-04-11T09:30:20.086Z,92674.00
2023-04-11T09:31:20.144Z,92674.00
2023-04-11T09:32:20.012Z,92676.00
2023-04-11T09:33:19.963Z,92676.00
2023-04-11T09:34:19.894Z,92680.00
2023-04-11T09:35:19.857Z,92686.00
2023-04-11T09:36:19.881Z,92688.00
2023-04-11T09:37:19.827Z,92690.00
2023-04-11T09:38:19.783Z,92690.00
2023-04-11T09:39:19.751Z,92690.00
2023-04-11T09:40:19.735Z,92694.00
2023-04-11T09:41:19.686Z,92686.00
2023-04-11T09:42:19.656Z,92686.00
2023-04-11T09:43:20.483Z,92690.00
2023-04-11T09:44:19.566Z,92690.00
2023-04-11T09:45:19.526Z,92688.00
2023-04-11T09:46:19.486Z,92684.00
2023-04-11T09:47:19.415Z,92690.00
2023-04-11T09:48:19.359Z,92684.00
2023-04-11T09:49:19.301Z,92686.00
2023-04-11T09:50:19.244Z,92684.00
2023-04-11T09:51:34.418Z,92680.00
2023-04-11T09:52:20.130Z,92680.00
2023-04-11T09:53:19.067Z,92676.00
2023-04-11T09:54:19.018Z,92678.00
2023-04-11T09:55:19.013Z,92676.00
2023-04-11T09:56:18.906Z,92672.00
2023-04-11T09:57:18.840Z,92672.00
2023-04-11T09:58:18.790Z,92670.00
2023-04-11T09:59:18.729Z,92670.00
2023-04-11T10:00:18.671Z,92666.00
2023-04-11T10:01:18.632Z,92663.00
2023-04-11T10:02:18.586Z,92659.00
2023-04-11T10:03:18.651Z,92655.00
2023-04-11T10:04:18.452Z,92651.00
2023-04-11T10:05:18.337Z,92655.00
2023-04-11T10:06:18.286Z,92657.00
2023-04-11T10:07:18.818Z,92659.00
2023-04-11T10:08:18.162Z,92659.00
2023-04-11T10:09:18.260Z,92659.00
2023-04-11T10:10:18.041Z,92657.00
2023-04-11T10:11:18.003Z,92659.00
2023-04-11T10:12:17.966Z,92657.00
2023-04-11T10:13:17.935Z,92653.00
2023-04-11T10:14:17.905Z,92651.00
2023-04-11T10:15:17.846Z,92645.00
2023-04-11T10:16:17.813Z,92647.00
2023-04-11T10:17:20.472Z,92649.00
2023-04-11T10:18:17.684Z,92651.00
2023-04-11T10:19:17.627Z,92647.00
2023-04-11T10:20:17.569Z,92647.00
2023-04-11T10:21:17.511Z,92653.00
2023-04-11T10:22:17.471Z,92659.00
2023-04-11T10:23:18.421Z,92653.00
2023-04-11T10:24:18.009Z,92655.00
2023-04-11T10:25:17.901Z,92649.00
2023-04-11T10:26:17.820Z,92649.00
2023-04-11T10:27:18.311Z,92649.00
2023-04-11T10:28:17.137Z,92639.00
2023-04-11T10:29:17.076Z,92645.00
2023-04-11T10:30:17.051Z,92641.00
2023-04-11T10:31:17.010Z,92637.00
2023-04-11T10:32:16.962Z,92641.00
2023-04-11T10:33:16.888Z,92643.00
2023-04-11T10:34:16.841Z,92639.00
2023-04-11T10:35:16.784Z,92637.00
2023-04-11T10:36:16.750Z,92629.00
2023-04-11T10:37:16.683Z,92623.00
2023-04-11T10:38:16.652Z,92623.00
2023-04-11T10:39:16.587Z,92627.00
2023-04-11T10:40:16.557Z,92621.00
2023-04-11T10:41:16.563Z,92623.00
2023-04-11T10:42:16.563Z,92610.00
2023-04-11T10:43:16.551Z,92621.00
2023-04-11T10:44:16.561Z,92612.00
2023-04-11T10:45:16.558Z,92610.00
2023-04-11T10:46:16.559Z,92612.00
2023-04-11T10:47:16.653Z,92598.00
2023-04-11T10:48:16.556Z,92612.00
2023-04-11T10:49:16.560Z,92608.00
2023-04-11T10:50:16.562Z,92623.00
2023-04-11T10:51:16.574Z,92621.00
2023-04-11T10:52:16.606Z,92612.00
2023-04-11T10:53:16.582Z,92610.00
2023-04-11T10:54:16.603Z,92612.00
2023-04-11T10:55:16.607Z,92608.00
2023-04-11T10:56:16.672Z,92606.00
2023-04-11T10:57:16.577Z,92600.00
2023-04-11T10:58:16.527Z,92584.00
2023-04-11T10:59:16.468Z,92587.00
2023-04-11T11:00:16.418Z,92581.00
2023-04-11T11:01:25.973Z,92587.00
2023-04-11T11:02:17.482Z,92592.00
2023-04-11T11:03:16.368Z,92594.00
2023-04-11T11:04:16.394Z,92596.00
2023-04-11T11:05:16.163Z,92602.00
2023-04-11T11:06:16.114Z,92598.00
2023-04-11T11:07:16.054Z,92602.00
2023-04-11T11:08:16.005Z,92600.00
2023-04-11T11:09:15.944Z,92596.00
2023-04-11T11:10:15.935Z,92594.00
2023-04-11T11:11:15.944Z,92592.00
2023-04-11T11:12:15.961Z,92596.00
2023-04-11T11:13:15.973Z,92600.00
2023-04-11T11:14:15.995Z,92600.00
2023-04-11T11:15:16.010Z,92598.00
2023-04-11T11:16:16.059Z,92600.00
2023-04-11T11:17:16.091Z,92598.00
2023-04-11T11:18:16.067Z,92596.00
2023-04-11T11:19:16.080Z,92596.00
2023-04-11T11:20:16.108Z,92598.00
2023-04-11T11:21:24.563Z,92594.00
2023-04-11T11:22:17.092Z,92594.00
2023-04-11T11:23:16.059Z,92589.00
2023-04-11T11:24:15.985Z,92590.00
2023-04-11T11:25:15.981Z,92592.00
2023-04-11T11:26:15.882Z,92584.00
2023-04-11T11:27:15.832Z,92584.00
2023-04-11T11:28:15.788Z,92581.00
2023-04-11T11:29:15.744Z,92582.00
2023-04-11T11:30:15.752Z,92579.00
2023-04-11T11:31:15.744Z,92575.00
2023-04-11T11:32:15.752Z,92573.00
2023-04-11T11:33:15.842Z,92563.00
2023-04-11T11:35:16.736Z,92561.00
2023-04-11T11:36:15.734Z,92557.00
2023-04-11T11:37:15.641Z,92553.00
2023-04-11T11:38:15.599Z,92549.00
2023-04-11T11:39:15.570Z,92549.00
2023-04-11T11:40:15.499Z,92549.00
2023-04-11T11:41:15.459Z,92551.00
2023-04-11T11:42:15.406Z,92549.00
2023-04-11T11:43:15.377Z,92553.00
2023-04-11T11:44:15.396Z,92547.00
2023-04-11T11:45:15.420Z,92543.00